KPAEKFHR

Guest
Details From KPAE - SNOHOMISH CO
To KFHR - FRIDAY HARBOR
Flight Number -
Tags generated
Created
Modified
Stats Distance 48 nm / 88 km
Max Altitude 4,300 ft / 1,311 m
Waypoints 3
Social Downloads 0
Likes 0
Share VATSIM

Download

Looking for another format? Having issues loading an existing format? Contact us
Advertisement - Login to hide

Notes

Basic altitude profile: - Ascent Rate: 500ft/min - Ascent Speed: 100kts - Cruise Altitude: 5000ft - Cruise Speed: 100kts - Descent Rate: 500ft/min - Descent Speed: 100kts Options: - Use NATs: no - Use PACOTS: no - Use low airways: yes - Use high airways: no

Route

KPAE CVV KFHR

ID Type Via Altitude Latitude Longitude Leg Dist Tot Dist Heading (true) Name
O KPAE APT - 0 ft / 0 m 47.90598˚ -122.27914˚ - 0 nm - SNOHOMISH CO
CVV VOR - 4,300 ft / 1,311 m 48.24469˚ -122.72442˚ 27 nm 27 nm 319° / 319° PENN COVE VOR-DME
O KFHR APT - 0 ft / 0 m 48.52197˚ -123.02437˚ 20 nm 47 nm 324° / 324° FRIDAY HARBOR

Altitude Profile

Advertisement - Login to hide

KPAE

Details ICAO KPAE (PAE)
Name SNOHOMISH CO
Region United States
Timezone America/Los_Angeles (UTC-8.0)
Stats Elevation 606 ft / 185 m (AMSL)
Location 47.905980° -122.279142°
Runways 3
Magnetic Variation 15.788° E

METAR

KPAE 140353Z 33003KT 10SM CLR 06/04 A3040 RMK AO2 SLP297 T00560039

Decode

TAF

TAF KPAE 132320Z 1400/1424 33005KT P6SM SCT250 FM141300 04006KT 1/4SM FG VV001 FM142100 05003KT P6SM SCT250

Decode

Departure Runways

ID Width Length Bearing (true) Bearing (mag) Surface Threshold Offset Overrun Length
11 75 ft / 23 m 4,508 ft / 1,374 m 134.22° 118.43° Asphalt 801 ft / 244 m 0 ft / 0 m
16L 75 ft / 23 m 3,000 ft / 915 m 179.56° 163.77° Asphalt 0 ft / 0 m 0 ft / 0 m
16R 151 ft / 46 m 9,404 ft / 2,867 m 179.13° 163.34° Asphalt 400 ft / 122 m 220 ft / 67 m
29 75 ft / 23 m 4,508 ft / 1,374 m 314.23° 298.44° Asphalt 0 ft / 0 m 0 ft / 0 m
34L 151 ft / 46 m 9,404 ft / 2,867 m 359.13° 343.34° Asphalt 0 ft / 0 m 404 ft / 123 m
34R 75 ft / 23 m 3,000 ft / 915 m 359.56° 343.77° Asphalt 0 ft / 0 m 0 ft / 0 m

KFHR

Details ICAO KFHR (FRD)
Name FRIDAY HARBOR
Region United States
Timezone America/Los_Angeles (UTC-8.0)
Stats Elevation 113 ft / 34 m (AMSL)
Location 48.521966° -123.024368°
Runways 1
Magnetic Variation 16.073° E

METAR

KFHR 140353Z AUTO 00000KT 10SM CLR 07/04 A3042 RMK AO2 SLP301 T00720039 $

Decode

TAF

Not found

Destination Runways

ID Width Length Bearing (true) Bearing (mag) Surface Threshold Offset Overrun Length
16 75 ft / 23 m 3,402 ft / 1,037 m 177.06° 160.99° Asphalt 0 ft / 0 m 0 ft / 0 m
34 75 ft / 23 m 3,402 ft / 1,037 m 357.06° 340.99° Asphalt 0 ft / 0 m 0 ft / 0 m